createdAt,value
2023-11-15T00:02:17.373Z,10.10
2023-11-15T00:04:46.169Z,10.10
2023-11-15T00:07:14.575Z,10.00
2023-11-15T00:09:42.991Z,10.10
2023-11-15T00:12:11.843Z,10.10
2023-11-15T00:14:41.081Z,10.00
2023-11-15T00:17:10.043Z,10.10
2023-11-15T00:19:40.390Z,10.10
2023-11-15T00:22:08.631Z,10.10
2023-11-15T00:24:38.248Z,10.00
2023-11-15T00:27:07.086Z,10.10
2023-11-15T00:29:36.430Z,10.10
2023-11-15T00:32:05.777Z,10.10
2023-11-15T00:34:35.166Z,10.10
2023-11-15T00:37:05.889Z,10.10
2023-11-15T00:39:36.873Z,10.10
2023-11-15T00:42:06.035Z,10.10
2023-11-15T00:44:34.485Z,10.10
2023-11-15T00:47:04.419Z,10.10
2023-11-15T00:49:34.960Z,10.10
2023-11-15T00:52:04.687Z,10.10
2023-11-15T00:54:33.098Z,10.10
2023-11-15T00:57:01.493Z,10.10
2023-11-15T00:59:38.541Z,10.10
2023-11-15T01:02:07.251Z,10.10
2023-11-15T01:04:36.226Z,10.00
2023-11-15T01:07:06.339Z,10.10
2023-11-15T01:09:37.553Z,10.10
2023-11-15T01:12:09.437Z,10.00
2023-11-15T01:14:38.237Z,10.10
2023-11-15T01:17:07.335Z,10.00
2023-11-15T01:19:36.170Z,10.00
2023-11-15T01:22:06.129Z,10.10
2023-11-15T01:24:36.698Z,10.10
2023-11-15T01:27:07.273Z,10.10
2023-11-15T01:29:35.970Z,10.00
2023-11-15T01:32:05.225Z,10.00
2023-11-15T01:34:33.473Z,10.00
2023-11-15T01:37:01.856Z,10.10
2023-11-15T01:39:32.294Z,10.10
2023-11-15T01:42:00.687Z,10.10
2023-11-15T01:44:29.001Z,10.10
2023-11-15T01:46:57.267Z,10.00
2023-11-15T01:49:25.878Z,10.10
2023-11-15T01:51:55.572Z,10.10
2023-11-15T01:54:24.896Z,10.20
2023-11-15T01:56:55.203Z,10.10
2023-11-15T01:59:24.063Z,10.10
2023-11-15T02:01:55.396Z,10.20
2023-11-15T02:04:24.592Z,10.10
2023-11-15T02:06:54.223Z,10.10
2023-11-15T02:09:22.683Z,10.10
2023-11-15T02:11:51.780Z,10.10
2023-11-15T02:14:20.695Z,10.20
2023-11-15T02:16:50.117Z,10.20
2023-11-15T02:19:18.948Z,10.20
2023-11-15T02:21:47.433Z,10.20
2023-11-15T02:24:17.289Z,10.30
2023-11-15T02:26:48.974Z,10.30
2023-11-15T02:29:17.380Z,10.30
2023-11-15T02:31:46.803Z,10.30
2023-11-15T02:34:15.085Z,10.30
2023-11-15T02:36:43.323Z,10.30
2023-11-15T02:39:11.952Z,10.30
2023-11-15T02:41:42.490Z,10.30
2023-11-15T02:44:11.694Z,10.30
2023-11-15T02:46:40.549Z,10.30
2023-11-15T02:49:08.868Z,10.40
2023-11-15T02:51:39.155Z,10.30
2023-11-15T02:54:09.315Z,10.30
2023-11-15T02:56:37.810Z,10.30
2023-11-15T02:59:08.806Z,10.30
2023-11-15T03:01:37.224Z,10.40
2023-11-15T03:04:06.461Z,10.30
2023-11-15T03:06:34.680Z,10.30
2023-11-15T03:09:03.888Z,10.30
2023-11-15T03:11:32.570Z,10.30
2023-11-15T03:14:01.106Z,10.40
2023-11-15T03:16:31.181Z,10.30
2023-11-15T03:19:00.083Z,10.40
2023-11-15T03:21:28.606Z,10.40
2023-11-15T03:23:56.953Z,10.40
2023-11-15T03:26:25.389Z,10.40
2023-11-15T03:28:54.424Z,10.40
2023-11-15T03:31:23.271Z,10.40
2023-11-15T03:33:53.515Z,10.40
2023-11-15T03:36:22.095Z,10.40
2023-11-15T03:38:50.420Z,10.40
2023-11-15T03:41:18.621Z,10.40
2023-11-15T03:43:46.930Z,10.40
2023-11-15T03:46:15.458Z,10.40
2023-11-15T03:48:43.858Z,10.40
2023-11-15T03:51:14.077Z,10.40
2023-11-15T03:53:42.359Z,10.40
2023-11-15T03:56:11.258Z,10.40
2023-11-15T03:58:39.445Z,10.40
2023-11-15T04:01:07.906Z,10.40
2023-11-15T04:03:37.883Z,10.40
2023-11-15T04:06:09.164Z,10.40
2023-11-15T04:08:39.078Z,10.40
2023-11-15T04:11:07.677Z,10.40
2023-11-15T04:13:37.343Z,10.40
2023-11-15T04:16:07.243Z,10.40
2023-11-15T04:18:37.181Z,10.40
2023-11-15T04:21:06.337Z,10.40
2023-11-15T04:23:34.140Z,10.40
2023-11-15T04:26:04.031Z,10.40
2023-11-15T04:28:32.540Z,10.40
2023-11-15T04:31:01.578Z,10.40
2023-11-15T04:33:30.357Z,10.40
2023-11-15T04:36:00.951Z,10.40
2023-11-15T04:38:29.733Z,10.40
2023-11-15T04:40:58.509Z,10.40
2023-11-15T04:43:28.604Z,10.40
2023-11-15T04:45:56.775Z,10.40
2023-11-15T04:48:25.335Z,10.40
2023-11-15T04:50:55.941Z,10.40
2023-11-15T04:53:25.748Z,10.40
2023-11-15T04:55:54.143Z,10.40
2023-11-15T04:58:22.581Z,10.40
2023-11-15T05:00:52.778Z,10.40
2023-11-15T05:03:22.213Z,10.40
2023-11-15T05:05:50.731Z,10.30
2023-11-15T05:08:19.409Z,10.40
2023-11-15T05:10:47.892Z,10.30
2023-11-15T05:13:16.362Z,10.30
2023-11-15T05:15:45.206Z,10.30
2023-11-15T05:18:16.484Z,10.30
2023-11-15T05:20:47.377Z,10.30
2023-11-15T05:23:15.924Z,10.30
2023-11-15T05:25:44.381Z,10.30
2023-11-15T05:28:12.805Z,10.30
2023-11-15T05:30:41.629Z,10.30
2023-11-15T05:33:12.484Z,10.30
2023-11-15T05:35:42.306Z,10.30
2023-11-15T05:38:11.798Z,10.30
2023-11-15T05:40:40.321Z,10.30
2023-11-15T05:43:09.584Z,10.30
2023-11-15T05:45:38.421Z,10.20
2023-11-15T05:48:07.421Z,10.20
2023-11-15T05:50:35.882Z,10.30
2023-11-15T05:53:06.880Z,10.30
2023-11-15T05:55:35.374Z,10.30
2023-11-15T05:58:05.820Z,10.20
2023-11-15T06:00:34.486Z,10.20
2023-11-15T06:03:03.096Z,10.20
2023-11-15T06:05:31.656Z,10.30
2023-11-15T06:08:02.833Z,10.30
2023-11-15T06:10:34.567Z,10.30
2023-11-15T06:13:03.483Z,10.30
2023-11-15T06:15:32.283Z,10.20
2023-11-15T06:18:00.909Z,10.30
2023-11-15T06:20:31.122Z,10.20
2023-11-15T06:22:59.592Z,10.20
2023-11-15T06:25:29.246Z,10.20
2023-11-15T06:27:59.145Z,10.30
2023-11-15T06:30:27.577Z,10.20
2023-11-15T06:32:55.805Z,10.30
2023-11-15T06:35:23.960Z,10.20
2023-11-15T06:37:52.155Z,10.20
2023-11-15T06:40:20.510Z,10.20
2023-11-15T06:42:48.944Z,10.20
2023-11-15T06:45:19.205Z,10.30
2023-11-15T06:47:47.930Z,10.20
2023-11-15T06:50:16.952Z,10.20
2023-11-15T06:52:47.167Z,10.20
2023-11-15T06:55:16.794Z,10.20
2023-11-15T06:57:46.762Z,10.20
2023-11-15T07:00:15.976Z,10.20
2023-11-15T07:02:46.093Z,10.20
2023-11-15T07:05:14.750Z,10.20
2023-11-15T07:07:42.936Z,10.10
2023-11-15T07:10:12.058Z,10.10
2023-11-15T07:12:41.926Z,10.10
2023-11-15T07:15:14.486Z,10.10
2023-11-15T07:17:43.492Z,10.10
2023-11-15T07:20:16.130Z,10.10
2023-11-15T07:22:44.716Z,10.10
2023-11-15T07:25:14.436Z,10.10
2023-11-15T07:27:42.786Z,10.10
2023-11-15T07:30:13.441Z,10.20
2023-11-15T07:32:42.215Z,10.20
2023-11-15T07:35:12.607Z,10.20
2023-11-15T07:37:41.877Z,10.20
2023-11-15T07:40:14.182Z,10.20
2023-11-15T07:42:43.077Z,10.20
2023-11-15T07:45:13.291Z,10.20
2023-11-15T07:47:43.999Z,10.20
2023-11-15T07:50:17.214Z,10.20
2023-11-15T07:52:46.617Z,10.20
2023-11-15T07:55:16.466Z,10.20
2023-11-15T07:57:45.501Z,10.20
2023-11-15T08:00:14.795Z,10.20
2023-11-15T08:02:44.106Z,10.20
2023-11-15T08:05:12.651Z,10.20
2023-11-15T08:07:43.362Z,10.20
2023-11-15T08:10:14.745Z,10.20
2023-11-15T08:12:44.665Z,10.20
2023-11-15T08:15:16.804Z,10.20
2023-11-15T08:17:48.070Z,10.20
2023-11-15T08:20:18.812Z,10.20
2023-11-15T08:22:48.982Z,10.20
2023-11-15T08:25:17.270Z,10.20
2023-11-15T08:27:46.012Z,10.30
2023-11-15T08:30:18.762Z,10.30
2023-11-15T08:32:49.478Z,10.30
2023-11-15T08:35:18.828Z,10.30
2023-11-15T08:37:49.586Z,10.30
2023-11-15T08:40:26.795Z,10.30
2023-11-15T08:42:58.512Z,10.40
2023-11-15T08:45:27.200Z,10.40
2023-11-15T08:47:59.176Z,10.40
2023-11-15T08:50:28.659Z,10.40
2023-11-15T08:53:00.456Z,10.40
2023-11-15T08:55:29.785Z,10.40
2023-11-15T08:57:58.753Z,10.40
2023-11-15T09:00:27.113Z,10.40
2023-11-15T09:02:55.888Z,10.40
2023-11-15T09:05:26.134Z,10.40
2023-11-15T09:07:54.728Z,10.50
2023-11-15T09:10:25.654Z,10.50
2023-11-15T09:12:54.008Z,10.50
2023-11-15T09:15:23.880Z,10.50
2023-11-15T09:17:52.738Z,10.50
2023-11-15T09:20:27.496Z,10.50
2023-11-15T09:22:56.565Z,10.50
2023-11-15T09:25:28.375Z,10.50
2023-11-15T09:27:59.302Z,10.50
2023-11-15T09:30:28.131Z,10.60
2023-11-15T09:32:56.995Z,10.60
2023-11-15T09:35:29.702Z,10.60
2023-11-15T09:37:59.741Z,10.70
2023-11-15T09:40:30.291Z,10.70
2023-11-15T09:43:01.730Z,10.70
2023-11-15T09:45:30.276Z,10.80
2023-11-15T09:48:02.456Z,10.80
2023-11-15T09:50:34.937Z,10.80
2023-11-15T09:53:07.221Z,10.70
2023-11-15T09:55:37.482Z,10.70
2023-11-15T09:58:06.145Z,10.70
2023-11-15T10:00:34.644Z,10.70
2023-11-15T10:03:03.198Z,10.60
2023-11-15T10:05:33.738Z,10.40
2023-11-15T10:08:12.425Z,10.40
2023-11-15T10:10:44.705Z,10.40
2023-11-15T10:13:15.637Z,10.30
2023-11-15T10:15:46.224Z,10.40
2023-11-15T10:18:17.120Z,10.40
2023-11-15T10:20:45.833Z,10.50
2023-11-15T10:23:15.010Z,10.50
2023-11-15T10:25:52.309Z,10.50
2023-11-15T10:28:23.582Z,10.50
2023-11-15T10:31:04.806Z,10.60
2023-11-15T10:33:33.478Z,10.70
2023-11-15T10:36:23.563Z,10.70
2023-11-15T10:38:56.582Z,10.70
2023-11-15T10:41:30.650Z,10.80
2023-11-15T10:43:59.647Z,10.80
2023-11-15T10:46:30.683Z,10.80
2023-11-15T10:49:00.662Z,10.80
2023-11-15T10:51:36.648Z,10.80
2023-11-15T10:54:05.940Z,10.80
2023-11-15T10:56:36.195Z,10.80
2023-11-15T10:59:05.820Z,10.80
2023-11-15T11:01:35.523Z,10.90
2023-11-15T11:04:09.474Z,10.80
2023-11-15T11:06:43.026Z,10.80
2023-11-15T11:09:18.099Z,10.90
2023-11-15T11:11:53.901Z,10.90
2023-11-15T11:14:27.835Z,10.90
2023-11-15T11:16:57.520Z,10.90
2023-11-15T11:19:27.471Z,10.90
2023-11-15T11:22:13.545Z,10.90
2023-11-15T11:24:47.593Z,10.90
2023-11-15T11:27:35.590Z,10.90
2023-11-15T11:30:22.042Z,10.90
2023-11-15T11:32:52.338Z,10.90
2023-11-15T11:35:32.507Z,10.90
2023-11-15T11:38:02.214Z,11.00
2023-11-15T11:40:32.789Z,11.00
2023-11-15T11:43:23.528Z,11.00
2023-11-15T11:45:55.168Z,11.10
2023-11-15T11:48:25.416Z,11.10
2023-11-15T11:51:04.891Z,11.10
2023-11-15T11:53:39.356Z,11.20
2023-11-15T11:56:12.032Z,11.20
2023-11-15T11:58:44.086Z,11.20
2023-11-15T12:01:13.186Z,11.30
2023-11-15T12:03:49.676Z,11.30
2023-11-15T12:06:20.128Z,11.40
2023-11-15T12:08:54.005Z,11.50
2023-11-15T12:11:24.602Z,11.60
2023-11-15T12:13:55.695Z,11.60
2023-11-15T12:16:25.146Z,11.60
2023-11-15T12:19:05.091Z,11.60
2023-11-15T12:21:34.343Z,11.60
2023-11-15T12:24:06.284Z,11.60
2023-11-15T12:26:46.738Z,11.60
2023-11-15T12:29:24.173Z,11.60
2023-11-15T12:31:54.798Z,11.70
2023-11-15T12:34:24.152Z,11.70
2023-11-15T12:36:53.213Z,11.70
2023-11-15T12:39:24.140Z,11.70
2023-11-15T12:41:54.522Z,11.60
2023-11-15T12:44:24.712Z,11.60
2023-11-15T12:46:55.335Z,11.60
2023-11-15T12:49:26.784Z,11.60
2023-11-15T12:51:55.916Z,11.60
2023-11-15T12:54:24.279Z,11.60
2023-11-15T12:57:06.354Z,11.70
2023-11-15T12:59:37.807Z,11.80
2023-11-15T13:02:06.866Z,11.70
2023-11-15T13:04:49.144Z,11.70
2023-11-15T13:07:18.089Z,11.70
2023-11-15T13:09:46.706Z,11.80
2023-11-15T13:12:24.615Z,11.80
2023-11-15T13:14:55.256Z,11.70
2023-11-15T13:17:24.592Z,11.70
2023-11-15T13:19:53.173Z,11.70
2023-11-15T13:22:21.712Z,11.80
2023-11-15T13:24:51.325Z,11.80
2023-11-15T13:27:21.914Z,11.80
2023-11-15T13:29:52.078Z,11.80
2023-11-15T13:32:22.229Z,11.80
2023-11-15T13:34:52.268Z,11.70
2023-11-15T13:37:20.988Z,11.70
2023-11-15T13:39:49.436Z,11.80
2023-11-15T13:42:17.968Z,11.80
2023-11-15T13:44:48.621Z,11.90
2023-11-15T13:47:17.000Z,11.90
2023-11-15T13:50:00.382Z,11.90
2023-11-15T13:52:28.889Z,11.90
2023-11-15T13:54:57.967Z,11.90
2023-11-15T13:57:26.279Z,11.80
2023-11-15T13:59:54.649Z,11.80
2023-11-15T14:02:24.737Z,11.80
2023-11-15T14:04:54.521Z,11.80
2023-11-15T14:07:23.162Z,11.80
2023-11-15T14:09:51.820Z,11.80
2023-11-15T14:12:21.255Z,11.80
2023-11-15T14:14:49.587Z,11.80
2023-11-15T14:17:24.227Z,11.80
2023-11-15T14:19:54.143Z,11.70
2023-11-15T14:22:22.446Z,11.70
2023-11-15T14:24:50.665Z,11.70
2023-11-15T14:27:18.839Z,11.60
2023-11-15T14:29:46.982Z,11.60
2023-11-15T14:32:17.718Z,11.60
2023-11-15T14:34:46.408Z,11.50
2023-11-15T14:37:16.303Z,11.50
2023-11-15T14:39:44.470Z,11.50
2023-11-15T14:42:13.415Z,11.40
2023-11-15T14:44:41.973Z,11.40
2023-11-15T14:47:10.596Z,11.40
2023-11-15T14:49:39.284Z,11.40
2023-11-15T14:52:12.345Z,11.40
2023-11-15T14:54:44.580Z,11.40
2023-11-15T14:57:13.457Z,11.40
2023-11-15T14:59:43.602Z,11.40
2023-11-15T15:02:12.328Z,11.40
2023-11-15T15:04:44.251Z,11.30
2023-11-15T15:07:15.274Z,11.30
2023-11-15T15:09:45.430Z,11.30
2023-11-15T15:12:14.267Z,11.30
2023-11-15T15:14:43.329Z,11.20
2023-11-15T15:17:21.322Z,11.20
2023-11-15T15:19:54.554Z,11.20
2023-11-15T15:22:23.614Z,11.20
2023-11-15T15:24:53.394Z,11.10
2023-11-15T15:27:23.365Z,11.10
2023-11-15T15:29:52.578Z,11.10
2023-11-15T15:32:21.025Z,11.00
2023-11-15T15:34:49.429Z,11.00
2023-11-15T15:37:17.765Z,10.90
2023-11-15T15:39:46.564Z,10.90
2023-11-15T15:42:18.164Z,10.90
2023-11-15T15:44:48.533Z,10.90
2023-11-15T15:47:17.140Z,10.90
2023-11-15T15:49:46.970Z,10.90
2023-11-15T15:52:15.774Z,10.90
2023-11-15T15:54:44.754Z,10.90
2023-11-15T15:57:13.035Z,10.90
2023-11-15T15:59:43.669Z,10.90
2023-11-15T16:02:12.103Z,10.80
2023-11-15T16:04:43.728Z,10.80
2023-11-15T16:07:14.486Z,10.80
2023-11-15T16:09:43.762Z,10.80
2023-11-15T16:12:12.005Z,10.70
2023-11-15T16:14:40.260Z,10.60
2023-11-15T16:17:12.486Z,10.60
2023-11-15T16:19:40.979Z,10.50
2023-11-15T16:22:09.387Z,10.50
2023-11-15T16:24:37.640Z,10.50
2023-11-15T16:27:07.236Z,10.30
2023-11-15T16:29:35.550Z,10.30
2023-11-15T16:32:04.276Z,10.20
2023-11-15T16:34:33.927Z,10.20
2023-11-15T16:37:02.442Z,10.20
2023-11-15T16:39:30.810Z,10.20
2023-11-15T16:42:01.292Z,10.10
2023-11-15T16:44:34.481Z,10.10
2023-11-15T16:47:02.756Z,10.20
2023-11-15T16:49:31.160Z,10.00
2023-11-15T16:52:02.425Z,10.10
2023-11-15T16:54:32.609Z,9.90
2023-11-15T16:57:03.618Z,9.90
2023-11-15T16:59:32.212Z,9.90
2023-11-15T17:02:00.869Z,9.90
2023-11-15T17:04:29.589Z,9.80
2023-11-15T17:06:59.676Z,9.80
2023-11-15T17:09:30.045Z,9.80
2023-11-15T17:11:58.573Z,9.70
2023-11-15T17:14:27.282Z,9.80
2023-11-15T17:16:55.869Z,9.70
2023-11-15T17:19:24.292Z,9.70
2023-11-15T17:21:53.057Z,9.60
2023-11-15T17:24:21.713Z,9.60
2023-11-15T17:26:52.144Z,9.70
2023-11-15T17:29:21.511Z,9.70
2023-11-15T17:31:50.420Z,9.70
2023-11-15T17:34:19.041Z,9.70
2023-11-15T17:36:47.224Z,9.60
2023-11-15T17:39:16.712Z,9.50
2023-11-15T17:41:45.101Z,9.50
2023-11-15T17:44:16.376Z,9.50
2023-11-15T17:46:45.181Z,9.50
2023-11-15T17:49:14.044Z,9.50
2023-11-15T17:51:45.414Z,9.50
2023-11-15T17:54:15.583Z,9.50
2023-11-15T17:56:44.076Z,9.40
2023-11-15T17:59:13.343Z,9.40
2023-11-15T18:01:44.023Z,9.40
2023-11-15T18:04:15.189Z,9.40
2023-11-15T18:06:44.273Z,9.50
2023-11-15T18:09:13.116Z,9.40
2023-11-15T18:11:42.156Z,9.40
2023-11-15T18:14:10.432Z,9.40
2023-11-15T18:16:38.867Z,9.40
2023-11-15T18:19:09.789Z,9.50
2023-11-15T18:21:38.785Z,9.40
2023-11-15T18:24:10.639Z,9.40
2023-11-15T18:26:43.356Z,9.40
2023-11-15T18:29:12.874Z,9.40
2023-11-15T18:31:41.493Z,9.40
2023-11-15T18:34:12.553Z,9.40
2023-11-15T18:36:44.433Z,9.40
2023-11-15T18:39:16.080Z,9.40
2023-11-15T18:41:45.917Z,9.40
2023-11-15T18:44:16.978Z,9.30
2023-11-15T18:46:45.128Z,9.20
2023-11-15T18:49:18.430Z,9.20
2023-11-15T18:51:46.889Z,9.20
2023-11-15T18:54:15.390Z,9.20
2023-11-15T18:56:44.837Z,9.20
2023-11-15T18:59:13.016Z,9.20
2023-11-15T19:01:45.268Z,9.20
2023-11-15T19:04:15.242Z,9.20
2023-11-15T19:06:44.536Z,9.20
2023-11-15T19:09:17.432Z,9.10
2023-11-15T19:11:45.860Z,9.20
2023-11-15T19:14:14.245Z,9.10
2023-11-15T19:16:42.759Z,9.10
2023-11-15T19:19:11.201Z,9.10
2023-11-15T19:21:42.071Z,9.20
2023-11-15T19:24:10.890Z,9.10
2023-11-15T19:26:38.995Z,9.20
2023-11-15T19:29:07.949Z,9.20
2023-11-15T19:31:36.502Z,9.20
2023-11-15T19:34:06.099Z,9.30
2023-11-15T19:36:35.513Z,9.20
2023-11-15T19:39:05.806Z,9.10
2023-11-15T19:41:34.017Z,9.10
2023-11-15T19:44:02.851Z,9.10
2023-11-15T19:46:30.910Z,9.00
2023-11-15T19:48:59.244Z,9.00
2023-11-15T19:51:37.457Z,9.00
2023-11-15T19:54:09.170Z,9.00
2023-11-15T19:56:37.861Z,9.00
2023-11-15T19:59:06.171Z,9.00
2023-11-15T20:01:34.388Z,9.10
2023-11-15T20:04:05.164Z,9.10
2023-11-15T20:06:34.100Z,9.00
2023-11-15T20:09:03.583Z,9.00
2023-11-15T20:11:33.667Z,9.00
2023-11-15T20:14:02.361Z,9.00
2023-11-15T20:16:32.837Z,9.00
2023-11-15T20:19:03.758Z,9.00
2023-11-15T20:21:32.758Z,9.00
2023-11-15T20:24:01.196Z,9.10
2023-11-15T20:26:29.412Z,9.10
2023-11-15T20:28:59.370Z,9.00
2023-11-15T20:31:28.935Z,9.10
2023-11-15T20:33:57.444Z,9.10
2023-11-15T20:36:25.735Z,9.10
2023-11-15T20:38:54.395Z,9.10
2023-11-15T20:41:22.584Z,9.10
2023-11-15T20:43:50.897Z,9.10
2023-11-15T20:46:23.003Z,9.10
2023-11-15T20:48:52.113Z,9.00
2023-11-15T20:51:22.828Z,9.00
2023-11-15T20:53:51.583Z,9.10
2023-11-15T20:56:20.261Z,9.10
2023-11-15T20:58:49.233Z,9.00
2023-11-15T21:01:20.255Z,9.10
2023-11-15T21:03:52.057Z,9.10
2023-11-15T21:06:21.344Z,9.10
2023-11-15T21:08:49.799Z,9.00
2023-11-15T21:11:18.472Z,9.10
2023-11-15T21:13:46.902Z,9.10
2023-11-15T21:16:19.491Z,9.10
2023-11-15T21:18:53.584Z,9.10
2023-11-15T21:21:22.350Z,9.10
2023-11-15T21:23:51.461Z,9.10
2023-11-15T21:26:19.912Z,9.10
2023-11-15T21:28:48.798Z,9.10
2023-11-15T21:31:18.006Z,9.00
2023-11-15T21:33:46.522Z,9.00
2023-11-15T21:36:17.839Z,9.10
2023-11-15T21:38:46.228Z,9.00
2023-11-15T21:41:15.025Z,8.90
2023-11-15T21:43:43.528Z,9.00
2023-11-15T21:46:11.984Z,9.00
2023-11-15T21:48:40.382Z,9.00
2023-11-15T21:51:09.055Z,9.00
2023-11-15T21:53:39.185Z,9.00
2023-11-15T21:56:07.916Z,8.90
2023-11-15T21:58:36.075Z,8.90
2023-11-15T22:01:04.507Z,8.90
2023-11-15T22:03:33.133Z,8.90
2023-11-15T22:06:01.613Z,9.00
2023-11-15T22:08:33.189Z,9.00
2023-11-15T22:11:03.320Z,8.90
2023-11-15T22:13:31.631Z,9.00
2023-11-15T22:16:00.413Z,9.00
2023-11-15T22:18:30.419Z,9.00
2023-11-15T22:20:59.181Z,8.90
2023-11-15T22:23:27.581Z,8.90
2023-11-15T22:25:55.796Z,8.90
2023-11-15T22:28:28.608Z,8.90
2023-11-15T22:30:57.383Z,9.00
2023-11-15T22:33:25.961Z,9.00
2023-11-15T22:35:54.190Z,9.00
2023-11-15T22:38:25.628Z,9.00
2023-11-15T22:40:53.956Z,8.90
2023-11-15T22:43:22.477Z,8.90
2023-11-15T22:45:52.706Z,8.90
2023-11-15T22:48:21.084Z,8.90
2023-11-15T22:51:08.018Z,8.90
2023-11-15T22:53:36.990Z,8.90
2023-11-15T22:56:05.720Z,8.90
2023-11-15T22:58:36.187Z,8.90
2023-11-15T23:01:04.850Z,8.90
2023-11-15T23:03:33.602Z,8.90
2023-11-15T23:06:01.982Z,8.90
2023-11-15T23:08:32.070Z,8.90
2023-11-15T23:11:00.639Z,8.90
2023-11-15T23:13:30.293Z,8.90
2023-11-15T23:15:58.783Z,9.00
2023-11-15T23:18:27.230Z,9.00
2023-11-15T23:20:55.509Z,8.90
2023-11-15T23:23:23.737Z,8.90
2023-11-15T23:25:53.978Z,9.00
2023-11-15T23:28:22.982Z,9.00
2023-11-15T23:30:55.354Z,8.90
2023-11-15T23:33:25.388Z,8.90
2023-11-15T23:35:54.556Z,9.00
2023-11-15T23:38:23.750Z,9.00
2023-11-15T23:40:54.943Z,9.00
2023-11-15T23:43:23.155Z,9.00
2023-11-15T23:45:51.527Z,9.00
2023-11-15T23:48:21.351Z,9.00
2023-11-15T23:50:50.511Z,8.90
2023-11-15T23:53:19.196Z,9.00
2023-11-15T23:55:47.736Z,8.90
2023-11-15T23:58:17.574Z,9.00
